sensor_id;sensor_type;location;lat;lon;timestamp;P1;durP1;ratioP1;P2;durP2;ratioP2
79128;SDS011;68529;43.286;23.360;2024-02-21T00:00:49;6.50;;;5.87;;
79128;SDS011;68529;43.286;23.360;2024-02-21T00:03:15;7.37;;;6.50;;
79128;SDS011;68529;43.286;23.360;2024-02-21T00:05:40;7.67;;;6.87;;
79128;SDS011;68529;43.286;23.360;2024-02-21T00:08:05;7.30;;;6.60;;
79128;SDS011;68529;43.286;23.360;2024-02-21T00:10:31;7.20;;;6.50;;
79128;SDS011;68529;43.286;23.360;2024-02-21T00:12:57;7.30;;;6.37;;
79128;SDS011;68529;43.286;23.360;2024-02-21T00:15:24;7.83;;;7.03;;
79128;SDS011;68529;43.286;23.360;2024-02-21T00:17:50;6.60;;;6.00;;
79128;SDS011;68529;43.286;23.360;2024-02-21T00:20:15;7.73;;;6.87;;
79128;SDS011;68529;43.286;23.360;2024-02-21T00:22:41;7.27;;;6.47;;
79128;SDS011;68529;43.286;23.360;2024-02-21T00:25:06;6.40;;;5.80;;
79128;SDS011;68529;43.286;23.360;2024-02-21T00:27:33;6.50;;;5.87;;
79128;SDS011;68529;43.286;23.360;2024-02-21T00:29:58;7.17;;;6.43;;
79128;SDS011;68529;43.286;23.360;2024-02-21T00:32:23;6.47;;;5.30;;
79128;SDS011;68529;43.286;23.360;2024-02-21T00:34:49;5.83;;;5.33;;
79128;SDS011;68529;43.286;23.360;2024-02-21T00:37:14;6.40;;;5.80;;
79128;SDS011;68529;43.286;23.360;2024-02-21T00:39:39;5.80;;;5.30;;
79128;SDS011;68529;43.286;23.360;2024-02-21T00:42:05;6.30;;;5.70;;
79128;SDS011;68529;43.286;23.360;2024-02-21T00:44:32;6.27;;;5.67;;
79128;SDS011;68529;43.286;23.360;2024-02-21T00:46:57;6.70;;;6.00;;
79128;SDS011;68529;43.286;23.360;2024-02-21T00:49:23;6.03;;;5.43;;
79128;SDS011;68529;43.286;23.360;2024-02-21T00:51:48;6.23;;;5.60;;
79128;SDS011;68529;43.286;23.360;2024-02-21T00:54:13;7.50;;;6.73;;
79128;SDS011;68529;43.286;23.360;2024-02-21T00:56:39;7.23;;;6.00;;
79128;SDS011;68529;43.286;23.360;2024-02-21T00:59:05;7.17;;;5.97;;
79128;SDS011;68529;43.286;23.360;2024-02-21T01:01:30;7.53;;;6.83;;
79128;SDS011;68529;43.286;23.360;2024-02-21T01:03:55;6.73;;;6.10;;
79128;SDS011;68529;43.286;23.360;2024-02-21T01:06:21;6.80;;;6.10;;
79128;SDS011;68529;43.286;23.360;2024-02-21T01:08:46;7.30;;;6.60;;
79128;SDS011;68529;43.286;23.360;2024-02-21T01:11:13;8.00;;;6.80;;
79128;SDS011;68529;43.286;23.360;2024-02-21T01:13:39;8.40;;;7.33;;
79128;SDS011;68529;43.286;23.360;2024-02-21T01:16:04;8.60;;;7.47;;
79128;SDS011;68529;43.286;23.360;2024-02-21T01:18:31;8.10;;;6.37;;
79128;SDS011;68529;43.286;23.360;2024-02-21T01:20:57;6.50;;;5.90;;
79128;SDS011;68529;43.286;23.360;2024-02-21T01:23:22;6.87;;;6.27;;
79128;SDS011;68529;43.286;23.360;2024-02-21T01:25:47;7.53;;;6.03;;
79128;SDS011;68529;43.286;23.360;2024-02-21T01:28:13;7.10;;;6.40;;
79128;SDS011;68529;43.286;23.360;2024-02-21T01:30:38;7.10;;;6.40;;
79128;SDS011;68529;43.286;23.360;2024-02-21T01:33:03;9.53;;;6.90;;
79128;SDS011;68529;43.286;23.360;2024-02-21T01:35:29;7.77;;;6.97;;
79128;SDS011;68529;43.286;23.360;2024-02-21T01:37:54;11.00;;;9.63;;
79128;SDS011;68529;43.286;23.360;2024-02-21T01:40:19;7.20;;;6.50;;
79128;SDS011;68529;43.286;23.360;2024-02-21T01:42:45;7.13;;;6.43;;
79128;SDS011;68529;43.286;23.360;2024-02-21T01:45:12;6.83;;;6.13;;
79128;SDS011;68529;43.286;23.360;2024-02-21T01:47:38;8.30;;;7.43;;
79128;SDS011;68529;43.286;23.360;2024-02-21T01:50:03;7.60;;;6.90;;
79128;SDS011;68529;43.286;23.360;2024-02-21T01:52:29;9.20;;;7.40;;
79128;SDS011;68529;43.286;23.360;2024-02-21T01:54:56;8.13;;;7.37;;
79128;SDS011;68529;43.286;23.360;2024-02-21T01:57:22;7.83;;;7.03;;
79128;SDS011;68529;43.286;23.360;2024-02-21T01:59:48;7.77;;;6.97;;
79128;SDS011;68529;43.286;23.360;2024-02-21T02:02:15;7.97;;;7.17;;
79128;SDS011;68529;43.286;23.360;2024-02-21T02:04:41;7.83;;;7.03;;
79128;SDS011;68529;43.286;23.360;2024-02-21T02:07:07;9.03;;;7.87;;
79128;SDS011;68529;43.286;23.360;2024-02-21T02:09:33;8.07;;;7.27;;
79128;SDS011;68529;43.286;23.360;2024-02-21T02:11:59;8.30;;;7.40;;
79128;SDS011;68529;43.286;23.360;2024-02-21T02:14:25;8.17;;;6.80;;
79128;SDS011;68529;43.286;23.360;2024-02-21T02:16:50;7.37;;;6.67;;
79128;SDS011;68529;43.286;23.360;2024-02-21T02:19:16;8.53;;;7.70;;
79128;SDS011;68529;43.286;23.360;2024-02-21T02:21:42;8.30;;;7.40;;
79128;SDS011;68529;43.286;23.360;2024-02-21T02:24:11;7.07;;;6.37;;
79128;SDS011;68529;43.286;23.360;2024-02-21T02:26:39;7.53;;;6.70;;
79128;SDS011;68529;43.286;23.360;2024-02-21T02:29:04;7.17;;;6.50;;
79128;SDS011;68529;43.286;23.360;2024-02-21T02:31:30;7.20;;;6.50;;
79128;SDS011;68529;43.286;23.360;2024-02-21T02:33:55;7.33;;;6.63;;
79128;SDS011;68529;43.286;23.360;2024-02-21T02:36:21;7.17;;;6.50;;
79128;SDS011;68529;43.286;23.360;2024-02-21T02:38:46;7.37;;;6.67;;
79128;SDS011;68529;43.286;23.360;2024-02-21T02:41:11;8.27;;;6.87;;
79128;SDS011;68529;43.286;23.360;2024-02-21T02:43:37;9.00;;;7.00;;
79128;SDS011;68529;43.286;23.360;2024-02-21T02:46:02;6.77;;;6.07;;
79128;SDS011;68529;43.286;23.360;2024-02-21T02:48:28;6.60;;;6.00;;
79128;SDS011;68529;43.286;23.360;2024-02-21T02:50:54;7.73;;;6.30;;
79128;SDS011;68529;43.286;23.360;2024-02-21T02:53:20;8.23;;;6.43;;
79128;SDS011;68529;43.286;23.360;2024-02-21T02:55:45;7.47;;;6.77;;
79128;SDS011;68529;43.286;23.360;2024-02-21T02:58:10;6.90;;;6.20;;
79128;SDS011;68529;43.286;23.360;2024-02-21T03:00:36;7.07;;;6.30;;
79128;SDS011;68529;43.286;23.360;2024-02-21T03:03:01;6.17;;;5.57;;
79128;SDS011;68529;43.286;23.360;2024-02-21T03:05:30;6.93;;;6.33;;
79128;SDS011;68529;43.286;23.360;2024-02-21T03:07:55;6.83;;;6.23;;
79128;SDS011;68529;43.286;23.360;2024-02-21T03:10:21;7.30;;;6.50;;
79128;SDS011;68529;43.286;23.360;2024-02-21T03:12:46;8.07;;;6.40;;
79128;SDS011;68529;43.286;23.360;2024-02-21T03:15:12;7.30;;;6.60;;
79128;SDS011;68529;43.286;23.360;2024-02-21T03:17:38;6.67;;;5.87;;
79128;SDS011;68529;43.286;23.360;2024-02-21T03:20:04;7.93;;;7.20;;
79128;SDS011;68529;43.286;23.360;2024-02-21T03:22:30;7.10;;;6.40;;
79128;SDS011;68529;43.286;23.360;2024-02-21T03:24:57;9.20;;;6.60;;
79128;SDS011;68529;43.286;23.360;2024-02-21T03:27:23;6.87;;;6.27;;
79128;SDS011;68529;43.286;23.360;2024-02-21T03:29:48;6.97;;;6.27;;
79128;SDS011;68529;43.286;23.360;2024-02-21T03:32:13;6.77;;;6.07;;
79128;SDS011;68529;43.286;23.360;2024-02-21T03:34:39;8.60;;;6.30;;
79128;SDS011;68529;43.286;23.360;2024-02-21T03:37:04;6.20;;;5.60;;
79128;SDS011;68529;43.286;23.360;2024-02-21T03:39:33;6.30;;;5.70;;
79128;SDS011;68529;43.286;23.360;2024-02-21T03:41:58;6.43;;;5.77;;
79128;SDS011;68529;43.286;23.360;2024-02-21T03:44:29;6.33;;;5.73;;
79128;SDS011;68529;43.286;23.360;2024-02-21T03:46:56;7.20;;;6.50;;
79128;SDS011;68529;43.286;23.360;2024-02-21T03:49:21;6.90;;;6.00;;
79128;SDS011;68529;43.286;23.360;2024-02-21T03:51:47;7.67;;;6.17;;
79128;SDS011;68529;43.286;23.360;2024-02-21T03:54:12;5.97;;;5.37;;
79128;SDS011;68529;43.286;23.360;2024-02-21T03:56:38;6.40;;;5.50;;
79128;SDS011;68529;43.286;23.360;2024-02-21T03:59:09;7.03;;;6.20;;
79128;SDS011;68529;43.286;23.360;2024-02-21T04:01:34;6.60;;;6.00;;
79128;SDS011;68529;43.286;23.360;2024-02-21T04:04:00;6.10;;;5.50;;
79128;SDS011;68529;43.286;23.360;2024-02-21T04:06:26;6.87;;;6.10;;
79128;SDS011;68529;43.286;23.360;2024-02-21T04:08:51;6.70;;;6.00;;
79128;SDS011;68529;43.286;23.360;2024-02-21T04:11:17;5.40;;;4.90;;
79128;SDS011;68529;43.286;23.360;2024-02-21T04:13:43;5.97;;;5.37;;
79128;SDS011;68529;43.286;23.360;2024-02-21T04:16:09;6.40;;;5.57;;
79128;SDS011;68529;43.286;23.360;2024-02-21T04:18:35;5.90;;;5.30;;
79128;SDS011;68529;43.286;23.360;2024-02-21T04:21:00;6.07;;;5.53;;
79128;SDS011;68529;43.286;23.360;2024-02-21T04:23:26;5.97;;;5.47;;
79128;SDS011;68529;43.286;23.360;2024-02-21T04:25:51;6.03;;;5.43;;
79128;SDS011;68529;43.286;23.360;2024-02-21T04:28:20;7.70;;;6.90;;
79128;SDS011;68529;43.286;23.360;2024-02-21T04:30:45;7.10;;;6.40;;
79128;SDS011;68529;43.286;23.360;2024-02-21T04:33:11;7.50;;;6.80;;
79128;SDS011;68529;43.286;23.360;2024-02-21T04:35:36;9.73;;;8.83;;
79128;SDS011;68529;43.286;23.360;2024-02-21T04:38:02;9.70;;;8.70;;
79128;SDS011;68529;43.286;23.360;2024-02-21T04:40:27;7.17;;;6.47;;
79128;SDS011;68529;43.286;23.360;2024-02-21T04:42:52;12.40;;;10.43;;
79128;SDS011;68529;43.286;23.360;2024-02-21T04:45:19;11.13;;;10.03;;
79128;SDS011;68529;43.286;23.360;2024-02-21T04:47:44;10.57;;;9.47;;
79128;SDS011;68529;43.286;23.360;2024-02-21T04:50:10;9.93;;;8.60;;
79128;SDS011;68529;43.286;23.360;2024-02-21T04:52:35;6.33;;;5.77;;
79128;SDS011;68529;43.286;23.360;2024-02-21T04:55:00;7.10;;;6.40;;
79128;SDS011;68529;43.286;23.360;2024-02-21T04:57:26;9.97;;;8.97;;
79128;SDS011;68529;43.286;23.360;2024-02-21T04:59:51;11.30;;;9.23;;
79128;SDS011;68529;43.286;23.360;2024-02-21T05:02:16;16.27;;;13.00;;
79128;SDS011;68529;43.286;23.360;2024-02-21T05:04:42;9.50;;;7.70;;
79128;SDS011;68529;43.286;23.360;2024-02-21T05:07:08;8.97;;;6.97;;
79128;SDS011;68529;43.286;23.360;2024-02-21T05:09:34;7.00;;;6.30;;
79128;SDS011;68529;43.286;23.360;2024-02-21T05:11:59;6.50;;;5.90;;
79128;SDS011;68529;43.286;23.360;2024-02-21T05:14:25;6.87;;;5.70;;
79128;SDS011;68529;43.286;23.360;2024-02-21T05:16:51;5.50;;;5.00;;
79128;SDS011;68529;43.286;23.360;2024-02-21T05:19:17;8.03;;;6.60;;
79128;SDS011;68529;43.286;23.360;2024-02-21T05:21:42;7.93;;;7.13;;
79128;SDS011;68529;43.286;23.360;2024-02-21T05:24:08;8.80;;;7.77;;
79128;SDS011;68529;43.286;23.360;2024-02-21T05:26:33;25.70;;;20.03;;
79128;SDS011;68529;43.286;23.360;2024-02-21T05:28:58;199.97;;;115.17;;
79128;SDS011;68529;43.286;23.360;2024-02-21T05:31:24;363.47;;;215.90;;
79128;SDS011;68529;43.286;23.360;2024-02-21T05:33:50;140.67;;;102.57;;
79128;SDS011;68529;43.286;23.360;2024-02-21T05:36:15;40.90;;;36.53;;
79128;SDS011;68529;43.286;23.360;2024-02-21T05:38:41;10.77;;;9.77;;
79128;SDS011;68529;43.286;23.360;2024-02-21T05:41:06;10.33;;;8.20;;
79128;SDS011;68529;43.286;23.360;2024-02-21T05:43:31;6.73;;;6.13;;
79128;SDS011;68529;43.286;23.360;2024-02-21T05:45:57;6.53;;;5.90;;
79128;SDS011;68529;43.286;23.360;2024-02-21T05:48:23;5.63;;;5.13;;
79128;SDS011;68529;43.286;23.360;2024-02-21T05:50:48;5.60;;;5.10;;
79128;SDS011;68529;43.286;23.360;2024-02-21T05:53:14;7.83;;;6.47;;
79128;SDS011;68529;43.286;23.360;2024-02-21T05:55:39;7.20;;;6.50;;
79128;SDS011;68529;43.286;23.360;2024-02-21T05:58:05;6.93;;;6.30;;
79128;SDS011;68529;43.286;23.360;2024-02-21T06:00:31;6.33;;;5.70;;
79128;SDS011;68529;43.286;23.360;2024-02-21T06:02:57;6.40;;;5.80;;
79128;SDS011;68529;43.286;23.360;2024-02-21T06:05:22;6.20;;;5.60;;
79128;SDS011;68529;43.286;23.360;2024-02-21T06:07:47;6.60;;;6.00;;
79128;SDS011;68529;43.286;23.360;2024-02-21T06:10:13;6.00;;;5.40;;
79128;SDS011;68529;43.286;23.360;2024-02-21T06:12:41;6.00;;;5.40;;
79128;SDS011;68529;43.286;23.360;2024-02-21T06:15:07;5.67;;;5.17;;
79128;SDS011;68529;43.286;23.360;2024-02-21T06:17:33;6.40;;;5.57;;
79128;SDS011;68529;43.286;23.360;2024-02-21T06:19:58;5.63;;;5.07;;
79128;SDS011;68529;43.286;23.360;2024-02-21T06:22:23;6.73;;;6.13;;
79128;SDS011;68529;43.286;23.360;2024-02-21T06:24:49;7.00;;;6.30;;
79128;SDS011;68529;43.286;23.360;2024-02-21T06:27:14;11.03;;;9.90;;
79128;SDS011;68529;43.286;23.360;2024-02-21T06:29:41;11.83;;;10.53;;
79128;SDS011;68529;43.286;23.360;2024-02-21T06:32:06;9.13;;;8.23;;
79128;SDS011;68529;43.286;23.360;2024-02-21T06:34:32;7.00;;;6.30;;
79128;SDS011;68529;43.286;23.360;2024-02-21T06:36:57;14.40;;;11.47;;
79128;SDS011;68529;43.286;23.360;2024-02-21T06:39:23;9.33;;;8.10;;
79128;SDS011;68529;43.286;23.360;2024-02-21T06:41:48;6.67;;;5.97;;
79128;SDS011;68529;43.286;23.360;2024-02-21T06:44:15;14.13;;;10.37;;
79128;SDS011;68529;43.286;23.360;2024-02-21T06:46:41;13.37;;;11.03;;
79128;SDS011;68529;43.286;23.360;2024-02-21T06:49:06;7.83;;;6.70;;
79128;SDS011;68529;43.286;23.360;2024-02-21T06:51:32;5.17;;;4.67;;
79128;SDS011;68529;43.286;23.360;2024-02-21T06:53:58;5.53;;;4.97;;
79128;SDS011;68529;43.286;23.360;2024-02-21T06:56:24;5.40;;;4.90;;
79128;SDS011;68529;43.286;23.360;2024-02-21T06:58:54;6.10;;;5.47;;
79128;SDS011;68529;43.286;23.360;2024-02-21T07:01:23;6.20;;;5.60;;
79128;SDS011;68529;43.286;23.360;2024-02-21T07:03:51;5.33;;;4.83;;
79128;SDS011;68529;43.286;23.360;2024-02-21T07:06:16;5.97;;;5.47;;
79128;SDS011;68529;43.286;23.360;2024-02-21T07:08:41;6.43;;;5.17;;
79128;SDS011;68529;43.286;23.360;2024-02-21T07:11:07;5.07;;;4.67;;
79128;SDS011;68529;43.286;23.360;2024-02-21T07:13:32;4.97;;;4.47;;
79128;SDS011;68529;43.286;23.360;2024-02-21T07:15:58;5.23;;;4.77;;
79128;SDS011;68529;43.286;23.360;2024-02-21T07:18:23;6.10;;;5.00;;
79128;SDS011;68529;43.286;23.360;2024-02-21T07:20:50;4.30;;;4.00;;
79128;SDS011;68529;43.286;23.360;2024-02-21T07:23:16;4.77;;;4.33;;
79128;SDS011;68529;43.286;23.360;2024-02-21T07:25:41;6.30;;;4.87;;
79128;SDS011;68529;43.286;23.360;2024-02-21T07:28:07;4.60;;;4.20;;
79128;SDS011;68529;43.286;23.360;2024-02-21T07:30:32;5.10;;;4.63;;
79128;SDS011;68529;43.286;23.360;2024-02-21T07:32:57;4.47;;;4.17;;
79128;SDS011;68529;43.286;23.360;2024-02-21T07:35:23;4.87;;;4.47;;
79128;SDS011;68529;43.286;23.360;2024-02-21T07:37:48;4.90;;;4.40;;
79128;SDS011;68529;43.286;23.360;2024-02-21T07:40:14;3.97;;;3.67;;
79128;SDS011;68529;43.286;23.360;2024-02-21T07:42:40;4.67;;;3.93;;
79128;SDS011;68529;43.286;23.360;2024-02-21T07:45:07;4.70;;;4.30;;
79128;SDS011;68529;43.286;23.360;2024-02-21T07:47:33;5.10;;;4.70;;
79128;SDS011;68529;43.286;23.360;2024-02-21T07:49:59;4.97;;;4.57;;
79128;SDS011;68529;43.286;23.360;2024-02-21T07:52:24;4.33;;;3.93;;
79128;SDS011;68529;43.286;23.360;2024-02-21T07:54:50;5.53;;;5.13;;
79128;SDS011;68529;43.286;23.360;2024-02-21T07:57:15;5.23;;;4.73;;
79128;SDS011;68529;43.286;23.360;2024-02-21T07:59:41;4.40;;;4.00;;
79128;SDS011;68529;43.286;23.360;2024-02-21T08:02:07;4.53;;;4.13;;
79128;SDS011;68529;43.286;23.360;2024-02-21T08:04:32;4.90;;;4.50;;
79128;SDS011;68529;43.286;23.360;2024-02-21T08:06:58;4.90;;;4.50;;
79128;SDS011;68529;43.286;23.360;2024-02-21T08:09:29;5.77;;;5.00;;
79128;SDS011;68529;43.286;23.360;2024-02-21T08:11:54;5.23;;;4.73;;
79128;SDS011;68529;43.286;23.360;2024-02-21T08:14:20;4.87;;;4.47;;
79128;SDS011;68529;43.286;23.360;2024-02-21T08:16:46;4.30;;;3.90;;
79128;SDS011;68529;43.286;23.360;2024-02-21T08:19:12;4.87;;;4.47;;
79128;SDS011;68529;43.286;23.360;2024-02-21T08:21:37;5.30;;;4.70;;
79128;SDS011;68529;43.286;23.360;2024-02-21T08:24:03;4.43;;;4.00;;
79128;SDS011;68529;43.286;23.360;2024-02-21T08:26:28;4.30;;;3.90;;
79128;SDS011;68529;43.286;23.360;2024-02-21T08:28:56;3.83;;;3.47;;
79128;SDS011;68529;43.286;23.360;2024-02-21T08:31:25;5.87;;;5.33;;
79128;SDS011;68529;43.286;23.360;2024-02-21T08:33:59;4.10;;;3.80;;
79128;SDS011;68529;43.286;23.360;2024-02-21T08:36:31;4.10;;;3.80;;
79128;SDS011;68529;43.286;23.360;2024-02-21T08:39:00;4.70;;;4.03;;
79128;SDS011;68529;43.286;23.360;2024-02-21T08:41:29;4.57;;;3.90;;
79128;SDS011;68529;43.286;23.360;2024-02-21T08:43:56;5.00;;;4.50;;
79128;SDS011;68529;43.286;23.360;2024-02-21T08:46:21;4.43;;;4.03;;
79128;SDS011;68529;43.286;23.360;2024-02-21T08:48:49;3.83;;;3.43;;
79128;SDS011;68529;43.286;23.360;2024-02-21T08:51:14;4.27;;;3.90;;
79128;SDS011;68529;43.286;23.360;2024-02-21T08:53:40;4.37;;;3.63;;
79128;SDS011;68529;43.286;23.360;2024-02-21T08:56:06;5.07;;;4.67;;
79128;SDS011;68529;43.286;23.360;2024-02-21T08:58:32;4.40;;;4.00;;
79128;SDS011;68529;43.286;23.360;2024-02-21T09:00:58;6.97;;;6.30;;
79128;SDS011;68529;43.286;23.360;2024-02-21T09:03:23;4.93;;;4.50;;
79128;SDS011;68529;43.286;23.360;2024-02-21T09:05:49;5.73;;;4.90;;
79128;SDS011;68529;43.286;23.360;2024-02-21T09:08:14;4.97;;;4.57;;
79128;SDS011;68529;43.286;23.360;2024-02-21T09:10:39;4.83;;;4.33;;
79128;SDS011;68529;43.286;23.360;2024-02-21T09:13:05;4.80;;;4.23;;
79128;SDS011;68529;43.286;23.360;2024-02-21T09:15:32;6.17;;;5.60;;
79128;SDS011;68529;43.286;23.360;2024-02-21T09:17:58;5.30;;;4.73;;
79128;SDS011;68529;43.286;23.360;2024-02-21T09:20:23;5.07;;;4.63;;
79128;SDS011;68529;43.286;23.360;2024-02-21T09:22:48;6.07;;;5.47;;
79128;SDS011;68529;43.286;23.360;2024-02-21T09:25:14;5.07;;;4.60;;
79128;SDS011;68529;43.286;23.360;2024-02-21T09:27:39;5.03;;;4.60;;
79128;SDS011;68529;43.286;23.360;2024-02-21T09:30:05;4.70;;;4.30;;
79128;SDS011;68529;43.286;23.360;2024-02-21T09:32:31;4.73;;;4.27;;
79128;SDS011;68529;43.286;23.360;2024-02-21T09:34:57;4.93;;;4.47;;
79128;SDS011;68529;43.286;23.360;2024-02-21T09:37:23;4.40;;;4.00;;
79128;SDS011;68529;43.286;23.360;2024-02-21T09:39:49;4.80;;;4.40;;
79128;SDS011;68529;43.286;23.360;2024-02-21T09:42:16;4.80;;;4.40;;
79128;SDS011;68529;43.286;23.360;2024-02-21T09:44:45;5.37;;;4.87;;
79128;SDS011;68529;43.286;23.360;2024-02-21T09:47:55;4.80;;;4.40;;
79128;SDS011;68529;43.286;23.360;2024-02-21T09:50:05;4.73;;;4.33;;
79128;SDS011;68529;43.286;23.360;2024-02-21T09:52:31;5.10;;;4.70;;
79128;SDS011;68529;43.286;23.360;2024-02-21T09:55:00;4.40;;;4.00;;
79128;SDS011;68529;43.286;23.360;2024-02-21T09:57:26;6.07;;;5.47;;
79128;SDS011;68529;43.286;23.360;2024-02-21T09:59:53;5.10;;;4.70;;
79128;SDS011;68529;43.286;23.360;2024-02-21T10:02:21;5.10;;;4.60;;
79128;SDS011;68529;43.286;23.360;2024-02-21T10:04:47;6.70;;;6.13;;
79128;SDS011;68529;43.286;23.360;2024-02-21T10:07:12;8.23;;;7.53;;
79128;SDS011;68529;43.286;23.360;2024-02-21T10:09:38;6.20;;;5.70;;
79128;SDS011;68529;43.286;23.360;2024-02-21T10:12:09;6.87;;;6.17;;
79128;SDS011;68529;43.286;23.360;2024-02-21T10:14:36;7.40;;;6.80;;
79128;SDS011;68529;43.286;23.360;2024-02-21T10:17:01;6.23;;;5.73;;
79128;SDS011;68529;43.286;23.360;2024-02-21T10:19:27;6.90;;;6.23;;
79128;SDS011;68529;43.286;23.360;2024-02-21T10:22:00;7.87;;;6.63;;
79128;SDS011;68529;43.286;23.360;2024-02-21T10:24:28;5.80;;;5.30;;
79128;SDS011;68529;43.286;23.360;2024-02-21T10:27:07;6.20;;;5.70;;
79128;SDS011;68529;43.286;23.360;2024-02-21T10:29:34;5.43;;;4.93;;
79128;SDS011;68529;43.286;23.360;2024-02-21T10:32:04;5.77;;;5.27;;
79128;SDS011;68529;43.286;23.360;2024-02-21T10:34:39;5.73;;;5.27;;
79128;SDS011;68529;43.286;23.360;2024-02-21T10:37:07;6.17;;;5.50;;
79128;SDS011;68529;43.286;23.360;2024-02-21T10:39:34;6.13;;;5.50;;
79128;SDS011;68529;43.286;23.360;2024-02-21T10:42:02;7.77;;;7.07;;
79128;SDS011;68529;43.286;23.360;2024-02-21T10:44:31;7.27;;;6.57;;
79128;SDS011;68529;43.286;23.360;2024-02-21T10:46:58;7.50;;;6.80;;
79128;SDS011;68529;43.286;23.360;2024-02-21T10:49:25;7.83;;;7.00;;
79128;SDS011;68529;43.286;23.360;2024-02-21T10:51:54;8.27;;;7.47;;
79128;SDS011;68529;43.286;23.360;2024-02-21T10:57:04;11.00;;;9.60;;
79128;SDS011;68529;43.286;23.360;2024-02-21T10:59:31;6.77;;;5.77;;
79128;SDS011;68529;43.286;23.360;2024-02-21T11:01:57;6.30;;;5.80;;
79128;SDS011;68529;43.286;23.360;2024-02-21T11:04:22;6.77;;;6.07;;
79128;SDS011;68529;43.286;23.360;2024-02-21T11:06:49;9.73;;;8.57;;
79128;SDS011;68529;43.286;23.360;2024-02-21T11:09:15;10.67;;;7.10;;
79128;SDS011;68529;43.286;23.360;2024-02-21T11:11:42;7.43;;;6.70;;
79128;SDS011;68529;43.286;23.360;2024-02-21T11:14:09;6.97;;;6.30;;
79128;SDS011;68529;43.286;23.360;2024-02-21T11:16:37;13.00;;;11.07;;
79128;SDS011;68529;43.286;23.360;2024-02-21T11:19:09;11.30;;;10.07;;
79128;SDS011;68529;43.286;23.360;2024-02-21T11:21:46;8.90;;;7.90;;
79128;SDS011;68529;43.286;23.360;2024-02-21T11:24:13;8.13;;;7.43;;
79128;SDS011;68529;43.286;23.360;2024-02-21T11:26:39;8.87;;;8.07;;
79128;SDS011;68529;43.286;23.360;2024-02-21T11:29:07;8.33;;;7.53;;
79128;SDS011;68529;43.286;23.360;2024-02-21T11:31:41;10.23;;;8.00;;
79128;SDS011;68529;43.286;23.360;2024-02-21T11:34:13;8.97;;;7.53;;
79128;SDS011;68529;43.286;23.360;2024-02-21T11:36:48;7.50;;;6.67;;
79128;SDS011;68529;43.286;23.360;2024-02-21T11:39:22;7.57;;;6.83;;
79128;SDS011;68529;43.286;23.360;2024-02-21T11:44:32;7.77;;;7.00;;
79128;SDS011;68529;43.286;23.360;2024-02-21T11:46:59;7.30;;;6.53;;
79128;SDS011;68529;43.286;23.360;2024-02-21T11:49:25;6.67;;;5.97;;
79128;SDS011;68529;43.286;23.360;2024-02-21T11:52:00;7.03;;;6.37;;
79128;SDS011;68529;43.286;23.360;2024-02-21T11:54:29;7.30;;;6.60;;
79128;SDS011;68529;43.286;23.360;2024-02-21T11:56:58;7.10;;;6.40;;
79128;SDS011;68529;43.286;23.360;2024-02-21T11:59:23;6.70;;;6.00;;
79128;SDS011;68529;43.286;23.360;2024-02-21T12:01:49;6.40;;;5.90;;
79128;SDS011;68529;43.286;23.360;2024-02-21T12:04:16;6.33;;;5.73;;
79128;SDS011;68529;43.286;23.360;2024-02-21T12:06:44;62.23;;;40.93;;
79128;SDS011;68529;43.286;23.360;2024-02-21T12:09:13;7.43;;;6.63;;
79128;SDS011;68529;43.286;23.360;2024-02-21T12:11:40;7.50;;;6.80;;
79128;SDS011;68529;43.286;23.360;2024-02-21T12:14:05;12.77;;;10.83;;
79128;SDS011;68529;43.286;23.360;2024-02-21T12:16:31;7.10;;;6.30;;
79128;SDS011;68529;43.286;23.360;2024-02-21T12:18:58;5.80;;;5.30;;
79128;SDS011;68529;43.286;23.360;2024-02-21T12:21:25;6.30;;;5.50;;
79128;SDS011;68529;43.286;23.360;2024-02-21T12:23:53;6.63;;;5.70;;
79128;SDS011;68529;43.286;23.360;2024-02-21T12:26:22;5.80;;;5.30;;
79128;SDS011;68529;43.286;23.360;2024-02-21T12:28:47;4.93;;;4.53;;
79128;SDS011;68529;43.286;23.360;2024-02-21T12:31:13;4.03;;;3.70;;
79128;SDS011;68529;43.286;23.360;2024-02-21T12:33:39;3.93;;;3.57;;
79128;SDS011;68529;43.286;23.360;2024-02-21T12:36:04;3.90;;;3.50;;
79128;SDS011;68529;43.286;23.360;2024-02-21T12:38:30;3.30;;;3.00;;
79128;SDS011;68529;43.286;23.360;2024-02-21T12:40:55;4.80;;;4.00;;
79128;SDS011;68529;43.286;23.360;2024-02-21T12:43:22;3.00;;;2.50;;
79128;SDS011;68529;43.286;23.360;2024-02-21T12:45:48;3.20;;;2.27;;
79128;SDS011;68529;43.286;23.360;2024-02-21T12:48:14;3.60;;;3.10;;
79128;SDS011;68529;43.286;23.360;2024-02-21T12:50:40;4.33;;;3.10;;
79128;SDS011;68529;43.286;23.360;2024-02-21T12:53:12;3.50;;;3.20;;
79128;SDS011;68529;43.286;23.360;2024-02-21T12:55:38;2.93;;;2.63;;
79128;SDS011;68529;43.286;23.360;2024-02-21T12:58:03;4.20;;;3.43;;
79128;SDS011;68529;43.286;23.360;2024-02-21T13:00:32;3.07;;;2.77;;
79128;SDS011;68529;43.286;23.360;2024-02-21T13:02:58;3.50;;;3.20;;
79128;SDS011;68529;43.286;23.360;2024-02-21T13:05:23;4.53;;;4.03;;
79128;SDS011;68529;43.286;23.360;2024-02-21T13:07:49;4.67;;;3.77;;
79128;SDS011;68529;43.286;23.360;2024-02-21T13:10:14;5.30;;;4.23;;
79128;SDS011;68529;43.286;23.360;2024-02-21T13:12:40;4.40;;;3.63;;
79128;SDS011;68529;43.286;23.360;2024-02-21T13:15:05;5.40;;;4.90;;
79128;SDS011;68529;43.286;23.360;2024-02-21T13:17:31;9.77;;;7.23;;
79128;SDS011;68529;43.286;23.360;2024-02-21T13:19:57;4.13;;;3.50;;
79128;SDS011;68529;43.286;23.360;2024-02-21T13:22:22;3.63;;;3.33;;
79128;SDS011;68529;43.286;23.360;2024-02-21T13:24:51;3.77;;;3.47;;
79128;SDS011;68529;43.286;23.360;2024-02-21T13:27:16;4.40;;;3.97;;
79128;SDS011;68529;43.286;23.360;2024-02-21T13:29:41;4.27;;;3.67;;
79128;SDS011;68529;43.286;23.360;2024-02-21T13:32:07;3.47;;;3.17;;
79128;SDS011;68529;43.286;23.360;2024-02-21T13:34:32;4.03;;;3.63;;
79128;SDS011;68529;43.286;23.360;2024-02-21T13:36:59;5.30;;;4.80;;
79128;SDS011;68529;43.286;23.360;2024-02-21T13:39:24;4.10;;;3.70;;
79128;SDS011;68529;43.286;23.360;2024-02-21T13:41:50;3.70;;;3.30;;
79128;SDS011;68529;43.286;23.360;2024-02-21T13:44:15;3.47;;;3.07;;
79128;SDS011;68529;43.286;23.360;2024-02-21T13:46:41;4.87;;;3.70;;
79128;SDS011;68529;43.286;23.360;2024-02-21T13:49:06;5.97;;;5.20;;
79128;SDS011;68529;43.286;23.360;2024-02-21T13:51:34;4.73;;;4.23;;
79128;SDS011;68529;43.286;23.360;2024-02-21T13:54:03;4.50;;;4.10;;
79128;SDS011;68529;43.286;23.360;2024-02-21T13:56:29;5.27;;;4.77;;
79128;SDS011;68529;43.286;23.360;2024-02-21T13:58:55;6.17;;;4.03;;
79128;SDS011;68529;43.286;23.360;2024-02-21T14:01:21;4.00;;;3.60;;
79128;SDS011;68529;43.286;23.360;2024-02-21T14:03:46;5.87;;;4.40;;
79128;SDS011;68529;43.286;23.360;2024-02-21T14:06:12;4.10;;;3.80;;
79128;SDS011;68529;43.286;23.360;2024-02-21T14:08:37;4.57;;;3.80;;
79128;SDS011;68529;43.286;23.360;2024-02-21T14:11:04;4.50;;;3.60;;
79128;SDS011;68529;43.286;23.360;2024-02-21T14:13:31;3.80;;;3.50;;
79128;SDS011;68529;43.286;23.360;2024-02-21T14:15:56;3.40;;;3.10;;
79128;SDS011;68529;43.286;23.360;2024-02-21T14:18:22;4.07;;;3.17;;
79128;SDS011;68529;43.286;23.360;2024-02-21T14:20:47;3.50;;;3.20;;
79128;SDS011;68529;43.286;23.360;2024-02-21T14:23:13;4.13;;;3.73;;
79128;SDS011;68529;43.286;23.360;2024-02-21T14:25:38;6.43;;;5.40;;
79128;SDS011;68529;43.286;23.360;2024-02-21T14:28:04;4.73;;;4.07;;
79128;SDS011;68529;43.286;23.360;2024-02-21T14:30:30;3.50;;;3.20;;
79128;SDS011;68529;43.286;23.360;2024-02-21T14:32:55;3.90;;;3.10;;